»·PEaware :: N29239 KOXR-KCLR

N29239 :: KOXR-KCLR

FLIGHT INFORMATION

Flight Status: Arrived
Operator: Privately registered:
United States
More flights under this callsign
Pilot: Evan M. (27470)
Aircraft: Unknown
(TBM)
More flights by this aircraft type
Origin: KOXR Oxnard
United States
Destination: KCLR Cliff Hatfield Meml
United States
More flights between these airports :: More routes between these airports
Route: VNY V186 ITSME POM PDZ
File this flight plan on PilotEdge
Remarks:
Altitude:
(Current/Filed)
17,000ft
Speed:
(Current/Filed)
300kts
Departed: 06-Feb-21 03:34 PM
Arrived: 06-Feb-21 04:24 PM
Distance/Time
Traveled:
195nm/0:49
Distance/Time
To Go:
Arrived

Flight Plot

Page will automatically refresh every two minutes.

Flight plan parsing failed; only flown route is shown


Map Options




Map Legend


Flown Route
Filed Route
Departure Airport
Arrival Airport
Navaid (VOR, NDB)
Fix

Horizontal Profiles

Position Reports

Time Latitude Longitude Heading Altitude Ground
Speed
06-Feb-21 15:07 34.199285 -119.202622 188 46ft 0kts
06-Feb-21 15:08 34.199285 -119.202622 188 46ft 0kts
06-Feb-21 15:09 34.199285 -119.202622 188 46ft 0kts
06-Feb-21 15:10 34.199285 -119.202622 188 46ft 0kts
06-Feb-21 15:11 34.199285 -119.202622 188 46ft 0kts
06-Feb-21 15:12 34.199285 -119.202622 188 46ft 0kts
06-Feb-21 15:13 34.199285 -119.202622 188 46ft 0kts
06-Feb-21 15:14 34.199285 -119.202622 188 46ft 0kts
06-Feb-21 15:15 34.199285 -119.202622 188 46ft 0kts
06-Feb-21 15:16 34.199285 -119.202622 188 46ft 0kts
06-Feb-21 15:17 34.199285 -119.202622 188 46ft 0kts
06-Feb-21 15:18 34.199285 -119.202622 188 46ft 0kts
06-Feb-21 15:19 34.199285 -119.202622 188 46ft 0kts
06-Feb-21 15:20 34.199285 -119.202622 188 46ft 0kts
06-Feb-21 15:21 34.199285 -119.202622 188 46ft 0kts
06-Feb-21 15:22 34.199285 -119.202622 188 46ft 0kts
06-Feb-21 15:23 34.199285 -119.202622 188 46ft 0kts
06-Feb-21 15:24 34.199285 -119.202622 188 46ft 0kts
06-Feb-21 15:25 34.199285 -119.202622 188 46ft 0kts
06-Feb-21 15:26 34.199285 -119.202622 188 46ft 0kts
06-Feb-21 15:27 34.199285 -119.202622 188 46ft 0kts
06-Feb-21 15:28 34.199285 -119.202622 188 46ft 0kts
06-Feb-21 15:29 34.199285 -119.202622 188 46ft 0kts
06-Feb-21 15:30 34.199769 -119.201483 93 47ft 8kts
06-Feb-21 15:31 34.199892 -119.197586 27 44ft 0kts
06-Feb-21 15:32 34.200686 -119.197776 281 43ft 12kts
06-Feb-21 15:33 34.201743 -119.232333 270 764ft 160kts
06-Feb-21 15:34 34.200139 -119.286759 271 3022ft 162kts
06-Feb-21 15:35 34.202273 -119.349983 283 4412ft 200kts
06-Feb-21 15:36 34.235753 -119.356598 77 6954ft 180kts
06-Feb-21 15:37 34.227243 -119.289207 102 8058ft 230kts
06-Feb-21 15:38 34.206727 -119.215557 106 9426ft 233kts
06-Feb-21 15:39 34.202646 -119.138376 78 10917ft 228kts
06-Feb-21 15:40 34.208886 -119.066724 79 13371ft 209kts
06-Feb-21 15:41 34.210027 -118.998638 87 15813ft 211kts
06-Feb-21 15:42 34.208668 -118.919836 85 16985ft 259kts
06-Feb-21 15:43 34.211778 -118.825972 81 17109ft 295kts
06-Feb-21 15:44 34.220478 -118.725592 82 17064ft 307kts
06-Feb-21 15:45 34.219835 -118.621209 92 16907ft 316kts
06-Feb-21 15:46 34.213205 -118.516764 89 17106ft 309kts
06-Feb-21 15:47 34.201831 -118.413860 109 17115ft 317kts
06-Feb-21 15:48 34.166011 -118.315744 106 16919ft 319kts
06-Feb-21 15:49 34.135212 -118.216341 109 17029ft 316kts
06-Feb-21 15:50 34.104682 -118.116517 108 16896ft 318kts
06-Feb-21 15:51 34.080358 -118.016575 93 17160ft 305kts
06-Feb-21 15:52 34.076884 -117.913339 86 16932ft 310kts
06-Feb-21 15:53 34.072678 -117.812810 95 17088ft 307kts
06-Feb-21 15:54 34.034599 -117.726232 126 17035ft 316kts
06-Feb-21 15:55 33.982800 -117.646549 124 16956ft 315kts
06-Feb-21 15:56 33.933512 -117.559994 124 17005ft 311kts
06-Feb-21 15:57 33.892775 -117.468137 113 16976ft 309kts
06-Feb-21 15:58 33.855808 -117.374656 112 17033ft 312kts
06-Feb-21 15:59 33.818003 -117.281209 115 17085ft 312kts
06-Feb-21 16:00 33.780149 -117.187074 114 16896ft 314kts
06-Feb-21 16:01 33.744781 -117.091101 116 16934ft 307kts
06-Feb-21 16:02 33.708405 -116.998103 117 17014ft 308kts
06-Feb-21 16:03 33.672011 -116.905185 114 17085ft 309kts
06-Feb-21 16:04 33.637512 -116.809804 114 17006ft 313kts
06-Feb-21 16:05 33.598340 -116.716725 115 17071ft 313kts
06-Feb-21 16:06 33.559537 -116.622799 114 16898ft 316kts
06-Feb-21 16:07 33.521306 -116.528437 113 16950ft 315kts
06-Feb-21 16:08 33.484083 -116.433894 112 16932ft 314kts
06-Feb-21 16:09 33.444365 -116.340906 116 17004ft 310kts
06-Feb-21 16:10 33.406029 -116.248325 114 14385ft 316kts
06-Feb-21 16:11 33.367077 -116.155177 114 11627ft 306kts
06-Feb-21 16:12 33.331801 -116.065107 113 8438ft 286kts
06-Feb-21 16:13 33.300588 -115.981133 108 5597ft 278kts
06-Feb-21 16:14 33.272133 -115.898584 113 4977ft 264kts
06-Feb-21 16:15 33.240588 -115.820401 110 4969ft 260kts
06-Feb-21 16:16 33.212200 -115.743532 115 3563ft 237kts
06-Feb-21 16:17 33.181658 -115.680061 117 1922ft 212kts
06-Feb-21 16:18 33.161528 -115.624361 91 1141ft 160kts
06-Feb-21 16:19 33.159963 -115.566926 90 1110ft 185kts
06-Feb-21 16:20 33.156593 -115.508287 93 1172ft 144kts
06-Feb-21 16:21 33.134303 -115.492703 237 780ft 112kts
06-Feb-21 16:22 33.131355 -115.520509 269 -179ft 52kts
06-Feb-21 16:23 33.130820 -115.525596 90 -182ft 16kts
06-Feb-21 16:24 33.130791 -115.523603 87 -185ft 0kts
06-Feb-21 16:25 33.130791 -115.523603 87 -185ft 0kts

Navigation Log

Ident Type
Flight plan parsing failed, navigation log unavailable